createdAt,value
2018-09-13T00:02:23.295Z,18.87
2018-09-13T00:04:52.163Z,18.98
2018-09-13T00:07:21.134Z,19.01
2018-09-13T00:09:50.013Z,18.98
2018-09-13T00:12:18.875Z,18.91
2018-09-13T00:14:47.769Z,18.88
2018-09-13T00:17:16.648Z,18.86
2018-09-13T00:19:45.559Z,18.88
2018-09-13T00:22:14.455Z,18.90
2018-09-13T00:24:43.392Z,18.79
2018-09-13T00:27:12.273Z,18.79
2018-09-13T00:29:41.198Z,18.85
2018-09-13T00:32:10.157Z,18.82
2018-09-13T00:34:39.032Z,18.76
2018-09-13T00:37:07.988Z,18.80
2018-09-13T00:39:36.864Z,18.81
2018-09-13T00:42:05.821Z,18.79
2018-09-13T00:44:34.692Z,18.75
2018-09-13T00:47:03.772Z,18.75
2018-09-13T00:49:32.705Z,18.75
2018-09-13T00:52:01.568Z,18.68
2018-09-13T00:54:30.479Z,18.65
2018-09-13T00:56:59.336Z,18.65
2018-09-13T00:59:28.316Z,18.64
2018-09-13T01:01:57.188Z,18.68
2018-09-13T01:04:26.152Z,18.66
2018-09-13T01:06:55.087Z,18.68
2018-09-13T01:09:24.023Z,18.72
2018-09-13T01:11:52.956Z,18.69
2018-09-13T01:14:21.886Z,18.67
2018-09-13T01:16:50.763Z,18.77
2018-09-13T01:19:19.706Z,18.72
2018-09-13T01:21:48.827Z,18.77
2018-09-13T01:24:17.778Z,18.83
2018-09-13T01:26:46.740Z,18.78
2018-09-13T01:29:15.595Z,18.72
2018-09-13T01:31:44.546Z,18.72
2018-09-13T01:34:13.451Z,18.73
2018-09-13T01:36:42.342Z,18.69
2018-09-13T01:39:11.751Z,18.63
2018-09-13T01:41:40.786Z,18.58
2018-09-13T01:44:09.707Z,18.57
2018-09-13T01:46:38.574Z,18.56
2018-09-13T01:49:07.454Z,18.55
2018-09-13T01:51:36.335Z,18.53
2018-09-13T01:54:05.336Z,18.53
2018-09-13T01:56:34.327Z,18.50
2018-09-13T01:59:03.250Z,18.44
2018-09-13T02:01:32.182Z,18.48
2018-09-13T02:04:01.200Z,18.45
2018-09-13T02:06:30.141Z,18.37
2018-09-13T02:08:59.028Z,18.34
2018-09-13T02:11:27.911Z,18.32
2018-09-13T02:13:56.779Z,18.28
2018-09-13T02:16:25.712Z,18.29
2018-09-13T02:18:54.588Z,18.37
2018-09-13T02:21:23.478Z,18.38
2018-09-13T02:23:52.427Z,18.28
2018-09-13T02:26:21.376Z,18.20
2018-09-13T02:28:50.297Z,18.13
2018-09-13T02:31:19.169Z,18.14
2018-09-13T02:33:48.114Z,18.07
2018-09-13T02:36:17.052Z,18.04
2018-09-13T02:38:46.139Z,18.04
2018-09-13T02:41:15.035Z,18.04
2018-09-13T02:43:43.915Z,18.00
2018-09-13T02:46:13.116Z,17.98
2018-09-13T02:48:42.263Z,17.95
2018-09-13T02:51:11.157Z,17.94
2018-09-13T02:53:40.066Z,17.95
2018-09-13T02:56:09.046Z,17.87
2018-09-13T02:58:37.952Z,17.80
2018-09-13T03:01:07.027Z,17.79
2018-09-13T03:03:35.950Z,17.78
2018-09-13T03:06:04.887Z,17.71
2018-09-13T03:08:33.829Z,17.71
2018-09-13T03:11:02.721Z,17.65
2018-09-13T03:13:31.688Z,17.69
2018-09-13T03:16:00.567Z,17.71
2018-09-13T03:18:29.552Z,17.69
2018-09-13T03:20:58.452Z,17.65
2018-09-13T03:23:27.480Z,17.66
2018-09-13T03:25:56.400Z,17.73
2018-09-13T03:28:25.375Z,17.82
2018-09-13T03:30:54.368Z,17.94
2018-09-13T03:33:23.351Z,17.86
2018-09-13T03:35:52.368Z,17.72
2018-09-13T03:38:21.244Z,17.74
2018-09-13T03:40:50.288Z,17.77
2018-09-13T03:43:19.194Z,17.74
2018-09-13T03:45:48.207Z,17.68
2018-09-13T03:48:17.116Z,17.67
2018-09-13T03:50:46.027Z,17.65
2018-09-13T03:53:14.911Z,17.61
2018-09-13T03:55:43.816Z,17.59
2018-09-13T03:58:12.738Z,17.70
2018-09-13T04:00:41.708Z,17.65
2018-09-13T04:03:10.776Z,17.73
2018-09-13T04:05:39.747Z,17.87
2018-09-13T04:08:08.728Z,17.95
2018-09-13T04:10:37.643Z,18.07
2018-09-13T04:13:06.739Z,18.03
2018-09-13T04:15:35.644Z,17.94
2018-09-13T04:18:04.627Z,18.43
2018-09-13T04:20:33.532Z,18.88
2018-09-13T04:23:02.412Z,19.20
2018-09-13T04:25:31.321Z,19.31
2018-09-13T04:28:00.364Z,19.55
2018-09-13T04:30:29.670Z,19.40
2018-09-13T04:32:58.917Z,19.30
2018-09-13T04:35:28.269Z,19.27
2018-09-13T04:37:58.520Z,19.27
2018-09-13T04:40:28.200Z,18.99
2018-09-13T04:42:57.107Z,18.92
2018-09-13T04:45:26.328Z,18.95
2018-09-13T04:47:55.635Z,19.08
2018-09-13T04:50:24.831Z,19.07
2018-09-13T04:52:54.171Z,19.04
2018-09-13T04:55:23.157Z,18.98
2018-09-13T04:57:52.412Z,18.94
2018-09-13T05:00:21.783Z,18.83
2018-09-13T05:02:50.967Z,18.80
2018-09-13T05:05:19.911Z,18.74
2018-09-13T05:07:48.852Z,18.77
2018-09-13T05:10:17.753Z,18.75
2018-09-13T05:12:46.726Z,18.85
2018-09-13T05:15:15.636Z,19.00
2018-09-13T05:17:44.556Z,19.37
2018-09-13T05:20:13.511Z,19.66
2018-09-13T05:22:42.384Z,19.53
2018-09-13T05:25:11.348Z,19.49
2018-09-13T05:27:40.246Z,19.35
2018-09-13T05:30:09.263Z,19.27
2018-09-13T05:32:38.444Z,19.28
2018-09-13T05:35:07.788Z,19.54
2018-09-13T05:37:37.128Z,19.67
2018-09-13T05:40:06.452Z,19.94
2018-09-13T05:42:35.805Z,20.10
2018-09-13T05:45:05.092Z,19.99
2018-09-13T05:47:34.231Z,20.04
2018-09-13T05:50:03.279Z,20.02
2018-09-13T05:52:32.504Z,19.97
2018-09-13T05:55:01.838Z,20.06
2018-09-13T05:57:31.150Z,20.15
2018-09-13T06:00:00.331Z,20.13
2018-09-13T06:02:29.285Z,20.28
2018-09-13T06:04:58.299Z,20.37
2018-09-13T06:07:27.199Z,20.27
2018-09-13T06:09:56.222Z,20.41
2018-09-13T06:12:25.121Z,20.49
2018-09-13T06:14:54.013Z,20.53
2018-09-13T06:17:22.983Z,20.40
2018-09-13T06:19:51.947Z,20.41
2018-09-13T06:22:20.863Z,20.49
2018-09-13T06:24:49.763Z,20.44
2018-09-13T06:27:18.735Z,20.51
2018-09-13T06:29:47.643Z,20.63
2018-09-13T06:32:16.567Z,20.69
2018-09-13T06:34:45.476Z,20.86
2018-09-13T06:37:14.399Z,20.64
2018-09-13T06:39:43.335Z,20.63
2018-09-13T06:42:12.241Z,20.75
2018-09-13T06:44:41.138Z,20.80
2018-09-13T06:47:10.032Z,20.97
2018-09-13T06:49:39.007Z,21.05
2018-09-13T06:52:07.904Z,21.07
2018-09-13T06:54:36.777Z,21.16
2018-09-13T06:57:05.701Z,21.13
2018-09-13T06:59:34.589Z,21.15
2018-09-13T07:02:03.561Z,21.09
2018-09-13T07:04:32.442Z,21.13
2018-09-13T07:07:01.482Z,21.14
2018-09-13T07:09:30.423Z,21.06
2018-09-13T07:11:59.318Z,20.88
2018-09-13T07:14:28.247Z,21.01
2018-09-13T07:16:57.263Z,21.00
2018-09-13T07:19:26.208Z,21.02
2018-09-13T07:21:55.088Z,20.96
2018-09-13T07:24:24.016Z,20.99
2018-09-13T07:26:52.891Z,21.11
2018-09-13T07:29:21.938Z,21.14
2018-09-13T07:31:50.861Z,21.29
2018-09-13T07:34:19.788Z,21.28
2018-09-13T07:36:49.005Z,21.38
2018-09-13T07:39:18.004Z,21.29
2018-09-13T07:41:46.960Z,21.17
2018-09-13T07:44:16.035Z,21.25
2018-09-13T07:46:44.971Z,21.16
2018-09-13T07:49:13.974Z,21.31
2018-09-13T07:51:42.935Z,21.26
2018-09-13T07:54:11.827Z,21.23
2018-09-13T07:56:41.516Z,21.29
2018-09-13T07:59:10.408Z,21.26
2018-09-13T08:01:39.323Z,21.22
2018-09-13T08:04:08.509Z,21.33
2018-09-13T08:06:37.422Z,21.41
2018-09-13T08:09:09.594Z,21.52
2018-09-13T08:11:38.608Z,21.61
2018-09-13T08:14:07.720Z,21.60
2018-09-13T08:16:36.613Z,21.53
2018-09-13T08:19:05.552Z,21.38
2018-09-13T08:21:34.549Z,21.46
2018-09-13T08:24:03.450Z,21.57
2018-09-13T08:26:32.347Z,21.56
2018-09-13T08:29:01.377Z,21.66
2018-09-13T08:31:30.330Z,21.55
2018-09-13T08:33:59.282Z,21.66
2018-09-13T08:36:28.432Z,21.73
2018-09-13T08:38:57.316Z,21.87
2018-09-13T08:41:26.302Z,21.94
2018-09-13T08:43:55.264Z,21.76
2018-09-13T08:46:24.221Z,21.85
2018-09-13T08:48:53.314Z,21.89
2018-09-13T08:51:22.199Z,21.94
2018-09-13T08:53:51.079Z,21.95
2018-09-13T08:56:20.044Z,22.06
2018-09-13T08:58:48.939Z,22.21
2018-09-13T09:01:17.944Z,22.40
2018-09-13T09:03:46.884Z,22.46
2018-09-13T09:06:15.850Z,22.54
2018-09-13T09:08:44.810Z,22.58
2018-09-13T09:11:13.767Z,22.80
2018-09-13T09:13:42.759Z,22.75
2018-09-13T09:16:11.640Z,22.99
2018-09-13T09:18:40.592Z,22.89
2018-09-13T09:21:09.449Z,22.87
2018-09-13T09:23:38.422Z,22.68
2018-09-13T09:26:07.331Z,22.57
2018-09-13T09:28:36.207Z,22.55
2018-09-13T09:31:05.150Z,22.53
2018-09-13T09:33:34.035Z,22.50
2018-09-13T09:36:02.911Z,22.33
2018-09-13T09:38:31.815Z,22.19
2018-09-13T09:41:00.758Z,22.20
2018-09-13T09:43:29.676Z,22.20
2018-09-13T09:45:58.738Z,22.29
2018-09-13T09:48:27.624Z,22.43
2018-09-13T09:50:56.620Z,22.46
2018-09-13T09:53:25.512Z,22.46
2018-09-13T09:55:54.391Z,22.39
2018-09-13T09:58:23.298Z,22.32
2018-09-13T10:00:57.283Z,22.09
2018-09-13T10:03:26.235Z,22.28
2018-09-13T10:05:55.099Z,22.37
2018-09-13T10:08:24.064Z,22.51
2018-09-13T10:10:52.953Z,22.60
2018-09-13T10:13:21.884Z,22.72
2018-09-13T10:15:55.896Z,22.84
2018-09-13T10:18:29.906Z,22.85
2018-09-13T10:21:03.836Z,23.01
2018-09-13T10:23:37.940Z,22.95
2018-09-13T10:26:11.833Z,23.05
2018-09-13T10:28:45.705Z,23.08
2018-09-13T10:31:19.660Z,23.10
2018-09-13T10:33:53.608Z,22.99
2018-09-13T10:36:27.531Z,22.94
2018-09-13T10:39:01.413Z,22.90
2018-09-13T10:41:35.310Z,22.87
2018-09-13T10:44:09.214Z,22.88
2018-09-13T10:46:38.143Z,22.94
2018-09-13T10:49:12.004Z,23.00
2018-09-13T10:51:46.043Z,22.97
2018-09-13T10:54:19.998Z,23.07
2018-09-13T10:56:48.887Z,23.14
2018-09-13T10:59:17.799Z,23.15
2018-09-13T11:01:46.772Z,23.13
2018-09-13T11:04:15.725Z,23.20
2018-09-13T11:06:44.671Z,23.27
2018-09-13T11:09:14.896Z,23.35
2018-09-13T11:11:44.226Z,23.57
2018-09-13T11:16:21.114Z,23.61
2018-09-13T11:18:50.101Z,23.55
2018-09-13T11:21:19.091Z,23.54
2018-09-13T11:23:48.088Z,23.56
2018-09-13T11:26:17.067Z,23.54
2018-09-13T11:28:45.951Z,23.46
2018-09-13T11:31:14.856Z,23.54
2018-09-13T11:33:43.753Z,23.54
2018-09-13T11:36:12.646Z,23.42
2018-09-13T11:38:41.614Z,23.49
2018-09-13T11:41:10.848Z,23.49
2018-09-13T11:43:39.746Z,23.53
2018-09-13T11:46:08.652Z,23.50
2018-09-13T11:48:37.613Z,23.50
2018-09-13T11:51:06.583Z,23.45
2018-09-13T11:53:35.526Z,23.50
2018-09-13T11:56:04.393Z,23.50
2018-09-13T11:58:33.328Z,23.49
2018-09-13T12:01:02.246Z,23.63
2018-09-13T12:03:31.140Z,23.59
2018-09-13T12:06:00.029Z,23.45
2018-09-13T12:08:28.947Z,23.47
2018-09-13T12:10:57.908Z,23.42
2018-09-13T12:13:26.812Z,23.44
2018-09-13T12:15:55.731Z,23.52
2018-09-13T12:18:24.720Z,23.60
2018-09-13T12:20:53.608Z,23.55
2018-09-13T12:23:22.533Z,23.64
2018-09-13T12:25:51.420Z,23.69
2018-09-13T12:28:20.327Z,23.61
2018-09-13T12:30:49.260Z,23.64
2018-09-13T12:33:18.201Z,23.67
2018-09-13T12:35:47.068Z,23.68
2018-09-13T12:38:15.973Z,23.67
2018-09-13T12:40:44.922Z,23.63
2018-09-13T12:43:13.885Z,23.60
2018-09-13T12:45:42.776Z,23.65
2018-09-13T12:48:11.658Z,23.58
2018-09-13T12:50:40.619Z,23.74
2018-09-13T12:53:09.603Z,23.75
2018-09-13T12:55:43.591Z,23.73
2018-09-13T12:58:12.577Z,23.75
2018-09-13T13:00:41.642Z,23.84
2018-09-13T13:03:10.536Z,23.94
2018-09-13T13:05:39.571Z,23.87
2018-09-13T13:08:08.448Z,23.95
2018-09-13T13:10:37.348Z,23.99
2018-09-13T13:13:06.296Z,23.95
2018-09-13T13:15:35.211Z,23.85
2018-09-13T13:18:04.232Z,23.82
2018-09-13T13:20:33.157Z,23.84
2018-09-13T13:23:02.076Z,23.99
2018-09-13T13:25:30.976Z,23.98
2018-09-13T13:27:59.921Z,24.01
2018-09-13T13:30:28.838Z,24.06
2018-09-13T13:32:57.812Z,24.00
2018-09-13T13:35:26.708Z,23.95
2018-09-13T13:37:55.704Z,23.97
2018-09-13T13:40:24.607Z,23.94
2018-09-13T13:42:53.496Z,23.85
2018-09-13T13:45:22.412Z,23.75
2018-09-13T13:47:51.400Z,23.70
2018-09-13T13:50:20.335Z,23.61
2018-09-13T13:52:49.240Z,23.55
2018-09-13T13:55:18.188Z,23.54
2018-09-13T13:57:47.072Z,23.58
2018-09-13T14:00:16.020Z,23.49
2018-09-13T14:02:44.974Z,23.37
2018-09-13T14:05:13.851Z,23.42
2018-09-13T14:07:42.809Z,23.43
2018-09-13T14:10:11.760Z,23.41
2018-09-13T14:12:40.715Z,23.41
2018-09-13T14:15:09.732Z,23.36
2018-09-13T14:17:38.639Z,23.37
2018-09-13T14:20:07.649Z,23.39
2018-09-13T14:22:36.672Z,23.34
2018-09-13T14:25:05.874Z,23.35
2018-09-13T14:27:34.768Z,23.31
2018-09-13T14:30:03.686Z,23.43
2018-09-13T14:32:32.608Z,23.54
2018-09-13T14:35:01.594Z,23.59
2018-09-13T14:37:30.527Z,23.68
2018-09-13T14:39:59.453Z,23.72
2018-09-13T14:42:28.393Z,23.67
2018-09-13T14:44:57.288Z,23.69
2018-09-13T14:47:26.225Z,23.66
2018-09-13T14:49:55.128Z,23.63
2018-09-13T14:52:24.088Z,23.68
2018-09-13T14:54:52.956Z,23.64
2018-09-13T14:57:21.991Z,23.63
2018-09-13T14:59:50.900Z,23.53
2018-09-13T15:02:19.792Z,23.47
2018-09-13T15:04:48.949Z,23.45
2018-09-13T15:07:17.895Z,23.39
2018-09-13T15:09:46.788Z,23.35
2018-09-13T15:12:15.667Z,23.36
2018-09-13T15:14:44.568Z,23.27
2018-09-13T15:17:13.578Z,23.24
2018-09-13T15:19:42.522Z,23.19
2018-09-13T15:22:11.464Z,23.21
2018-09-13T15:24:40.385Z,23.20
2018-09-13T15:27:09.364Z,23.23
2018-09-13T15:29:38.268Z,23.19
2018-09-13T15:32:07.395Z,23.07
2018-09-13T15:34:36.290Z,23.08
2018-09-13T15:37:05.504Z,23.11
2018-09-13T15:39:34.399Z,23.15
2018-09-13T15:42:03.367Z,23.17
2018-09-13T15:44:32.367Z,23.15
2018-09-13T15:47:01.663Z,23.12
2018-09-13T15:49:30.619Z,23.13
2018-09-13T15:51:59.495Z,23.05
2018-09-13T15:54:28.500Z,23.00
2018-09-13T15:56:57.387Z,22.96
2018-09-13T15:59:27.265Z,22.88
2018-09-13T16:01:56.284Z,22.90
2018-09-13T16:04:25.232Z,22.93
2018-09-13T16:06:54.159Z,22.97
2018-09-13T16:09:23.044Z,22.95
2018-09-13T16:11:52.010Z,22.93
2018-09-13T16:14:20.879Z,22.85
2018-09-13T16:16:49.853Z,22.82
2018-09-13T16:19:18.768Z,22.83
2018-09-13T16:21:47.691Z,22.74
2018-09-13T16:24:16.565Z,22.72
2018-09-13T16:26:45.599Z,22.69
2018-09-13T16:29:14.486Z,22.68
2018-09-13T16:31:43.540Z,22.67
2018-09-13T16:34:12.538Z,22.64
2018-09-13T16:36:45.564Z,22.57
2018-09-13T16:39:25.666Z,22.57
2018-09-13T16:41:59.666Z,22.54
2018-09-13T16:44:33.662Z,22.51
2018-09-13T16:47:08.787Z,22.52
2018-09-13T16:49:39.751Z,22.51
2018-09-13T16:52:08.836Z,22.58
2018-09-13T16:54:37.761Z,22.49
2018-09-13T16:57:06.695Z,22.54
2018-09-13T16:59:36.091Z,22.61
2018-09-13T17:02:05.624Z,22.55
2018-09-13T17:04:34.736Z,22.46
2018-09-13T17:07:03.729Z,22.36
2018-09-13T17:09:32.797Z,22.42
2018-09-13T17:12:02.029Z,22.45
2018-09-13T17:14:31.055Z,22.37
2018-09-13T17:16:59.931Z,22.38
2018-09-13T17:19:28.878Z,22.47
2018-09-13T17:21:58.208Z,22.46
2018-09-13T17:24:27.081Z,22.46
2018-09-13T17:26:55.995Z,22.45
2018-09-13T17:29:24.941Z,22.62
2018-09-13T17:31:53.962Z,22.76
2018-09-13T17:34:22.904Z,22.62
2018-09-13T17:36:52.233Z,22.83
2018-09-13T17:39:21.582Z,22.93
2018-09-13T17:41:50.770Z,23.02
2018-09-13T17:44:19.976Z,23.08
2018-09-13T17:46:49.036Z,23.19
2018-09-13T17:49:18.265Z,23.20
2018-09-13T17:51:47.536Z,23.13
2018-09-13T17:54:16.839Z,22.87
2018-09-13T17:56:45.800Z,22.81
2018-09-13T17:59:15.100Z,22.87
2018-09-13T18:01:44.258Z,23.00
2018-09-13T18:04:13.364Z,22.86
2018-09-13T18:06:42.638Z,22.79
2018-09-13T18:09:12.024Z,22.91
2018-09-13T18:11:41.383Z,22.88
2018-09-13T18:14:10.674Z,22.73
2018-09-13T18:16:39.574Z,22.50
2018-09-13T18:19:08.805Z,22.46
2018-09-13T18:21:38.272Z,22.40
2018-09-13T18:24:07.602Z,22.38
2018-09-13T18:26:36.764Z,22.29
2018-09-13T18:29:06.059Z,22.20
2018-09-13T18:31:35.281Z,22.29
2018-09-13T18:34:04.543Z,22.55
2018-09-13T18:36:33.523Z,22.84
2018-09-13T18:39:02.887Z,22.88
2018-09-13T18:41:32.114Z,22.83
2018-09-13T18:44:01.221Z,22.87
2018-09-13T18:46:30.474Z,22.90
2018-09-13T18:48:59.587Z,22.82
2018-09-13T18:51:28.722Z,22.75
2018-09-13T18:53:57.638Z,22.67
2018-09-13T18:56:26.907Z,22.54
2018-09-13T18:58:56.115Z,22.55
2018-09-13T19:01:25.227Z,22.58
2018-09-13T19:03:54.226Z,22.73
2018-09-13T19:06:23.217Z,22.59
2018-09-13T19:08:52.462Z,22.52
2018-09-13T19:11:21.714Z,22.54
2018-09-13T19:13:50.806Z,22.57
2018-09-13T19:27:59.646Z,22.23
2018-09-13T19:30:28.591Z,22.31
2018-09-13T19:32:57.621Z,22.37
2018-09-13T19:35:26.482Z,22.33
2018-09-13T19:37:55.362Z,22.32
2018-09-13T19:40:24.392Z,22.27
2018-09-13T19:42:53.476Z,22.37
2018-09-13T19:45:22.394Z,22.35
2018-09-13T19:47:51.283Z,22.24
2018-09-13T19:50:20.248Z,21.95
2018-09-13T19:52:49.140Z,21.69
2018-09-13T19:55:18.072Z,21.49
2018-09-13T19:57:46.951Z,21.33
2018-09-13T20:00:15.840Z,21.25
2018-09-13T20:02:44.779Z,21.17
2018-09-13T20:05:13.743Z,21.41
2018-09-13T20:07:42.693Z,21.58
2018-09-13T20:10:11.625Z,21.64
2018-09-13T20:12:40.575Z,21.62
2018-09-13T20:15:09.526Z,21.56
2018-09-13T20:17:38.419Z,21.57
2018-09-13T20:20:07.396Z,21.53
2018-09-13T20:22:36.336Z,21.64
2018-09-13T20:25:05.310Z,21.57
2018-09-13T20:27:34.196Z,21.54
2018-09-13T20:30:03.186Z,21.45
2018-09-13T20:32:32.088Z,21.24
2018-09-13T20:35:01.008Z,20.92
2018-09-13T20:37:29.908Z,20.73
2018-09-13T20:39:58.829Z,20.77
2018-09-13T20:42:27.727Z,20.80
2018-09-13T20:44:56.643Z,20.82
2018-09-13T20:47:25.593Z,20.93
2018-09-13T20:49:54.472Z,20.94
2018-09-13T20:52:23.396Z,20.86
2018-09-13T20:54:52.418Z,20.68
2018-09-13T20:57:21.239Z,20.45
2018-09-13T20:59:50.123Z,20.39
2018-09-13T21:02:19.044Z,20.28
2018-09-13T21:04:48.023Z,20.19
2018-09-13T21:07:17.011Z,20.09
2018-09-13T21:09:45.995Z,20.00
2018-09-13T21:12:14.893Z,19.88
2018-09-13T21:14:43.848Z,19.85
2018-09-13T21:17:12.909Z,19.76
2018-09-13T21:19:41.822Z,19.73
2018-09-13T21:22:11.200Z,19.69
2018-09-13T21:24:40.099Z,19.60
2018-09-13T21:27:09.019Z,19.57
2018-09-13T21:29:37.982Z,19.55
2018-09-13T21:32:06.894Z,19.49
2018-09-13T21:34:35.868Z,19.47
2018-09-13T21:37:04.739Z,19.37
2018-09-13T21:39:33.638Z,19.36
2018-09-13T21:42:02.533Z,19.34
2018-09-13T21:44:31.485Z,19.33
2018-09-13T21:47:00.388Z,19.46
2018-09-13T21:49:29.264Z,19.42
2018-09-13T21:51:58.224Z,19.39
2018-09-13T21:54:27.142Z,19.29
2018-09-13T21:56:56.095Z,19.15
2018-09-13T21:59:25.000Z,19.24
2018-09-13T22:01:53.961Z,19.29
2018-09-13T22:04:22.938Z,19.28
2018-09-13T22:06:51.836Z,19.22
2018-09-13T22:09:20.732Z,19.22
2018-09-13T22:11:49.603Z,19.20
2018-09-13T22:14:18.523Z,19.24
2018-09-13T22:16:47.367Z,19.25
2018-09-13T22:19:16.226Z,19.19
2018-09-13T22:21:45.078Z,19.17
2018-09-13T22:24:13.899Z,19.03
2018-09-13T22:26:42.746Z,19.09
2018-09-13T22:29:11.617Z,19.02
2018-09-13T22:31:40.455Z,19.11
2018-09-13T22:34:09.351Z,19.04
2018-09-13T22:36:38.266Z,19.10
2018-09-13T22:39:10.201Z,19.09
2018-09-13T22:41:39.470Z,19.09
2018-09-13T22:44:08.410Z,19.12
2018-09-13T22:46:37.310Z,19.08
2018-09-13T22:49:06.410Z,19.05
2018-09-13T22:51:35.291Z,18.98
2018-09-13T22:54:04.294Z,19.02
2018-09-13T22:56:33.187Z,18.99
2018-09-13T22:59:02.079Z,19.00
2018-09-13T23:01:30.991Z,18.99
2018-09-13T23:03:59.914Z,18.99
2018-09-13T23:06:28.869Z,18.99
2018-09-13T23:08:57.850Z,18.91
2018-09-13T23:11:26.796Z,18.87
2018-09-13T23:13:55.735Z,18.76
2018-09-13T23:16:24.636Z,18.74
2018-09-13T23:18:53.524Z,18.73
2018-09-13T23:21:22.460Z,18.72
2018-09-13T23:23:51.364Z,18.71
2018-09-13T23:26:20.316Z,18.64
2018-09-13T23:28:49.220Z,18.59
2018-09-13T23:31:18.237Z,18.62
2018-09-13T23:33:47.112Z,18.59
2018-09-13T23:36:16.056Z,18.54
2018-09-13T23:38:45.016Z,18.50
2018-09-13T23:41:13.962Z,18.43
2018-09-13T23:43:42.887Z,18.47
2018-09-13T23:46:11.825Z,18.52
2018-09-13T23:48:40.685Z,18.48
2018-09-13T23:51:09.722Z,18.40
2018-09-13T23:53:38.675Z,18.37
2018-09-13T23:56:07.594Z,18.36
2018-09-13T23:58:36.467Z,18.32
